createdAt,value
2019-03-25T00:00:02.280Z,5.24
2019-03-25T00:02:30.967Z,5.23
2019-03-25T00:04:59.624Z,5.24
2019-03-25T00:07:28.516Z,5.26
2019-03-25T00:09:57.217Z,5.32
2019-03-25T00:12:25.841Z,5.28
2019-03-25T00:14:54.507Z,5.39
2019-03-25T00:17:23.243Z,5.43
2019-03-25T00:19:51.858Z,5.42
2019-03-25T00:22:20.573Z,5.42
2019-03-25T00:24:49.423Z,5.43
2019-03-25T00:27:18.118Z,5.44
2019-03-25T00:29:46.842Z,5.42
2019-03-25T00:32:15.465Z,5.46
2019-03-25T00:34:44.287Z,5.50
2019-03-25T00:37:12.920Z,5.50
2019-03-25T00:39:41.632Z,5.52
2019-03-25T00:42:10.359Z,5.52
2019-03-25T00:44:39.079Z,5.50
2019-03-25T00:47:07.751Z,5.56
2019-03-25T00:49:36.369Z,5.62
2019-03-25T00:52:05.112Z,5.70
2019-03-25T00:54:33.773Z,5.64
2019-03-25T00:57:02.453Z,5.56
2019-03-25T00:59:31.163Z,5.51
2019-03-25T01:01:59.923Z,5.50
2019-03-25T01:04:28.603Z,5.48
2019-03-25T01:06:57.250Z,5.55
2019-03-25T01:09:25.945Z,5.56
2019-03-25T01:11:54.614Z,5.56
2019-03-25T01:14:23.346Z,5.62
2019-03-25T01:16:52.075Z,5.67
2019-03-25T01:19:20.757Z,5.73
2019-03-25T01:21:49.562Z,5.80
2019-03-25T01:24:18.272Z,5.81
2019-03-25T01:26:47.123Z,5.89
2019-03-25T01:29:15.862Z,5.94
2019-03-25T01:31:44.509Z,5.96
2019-03-25T01:34:13.168Z,6.08
2019-03-25T01:36:42.019Z,6.18
2019-03-25T01:39:10.723Z,6.26
2019-03-25T01:41:39.397Z,6.34
2019-03-25T01:44:08.137Z,6.42
2019-03-25T01:46:36.955Z,6.51
2019-03-25T01:49:06.405Z,6.54
2019-03-25T01:51:35.039Z,5.83
2019-03-25T01:54:03.748Z,6.21
2019-03-25T01:56:32.480Z,6.06
2019-03-25T01:59:01.295Z,5.79
2019-03-25T02:01:29.992Z,5.67
2019-03-25T02:03:58.737Z,5.60
2019-03-25T02:06:27.385Z,5.55
2019-03-25T02:08:56.120Z,5.47
2019-03-25T02:11:24.949Z,5.45
2019-03-25T02:13:53.646Z,5.38
2019-03-25T02:16:22.205Z,5.34
2019-03-25T02:18:50.967Z,5.28
2019-03-25T02:21:19.726Z,5.31
2019-03-25T02:23:48.372Z,5.26
2019-03-25T02:26:17.141Z,5.19
2019-03-25T02:28:45.910Z,5.13
2019-03-25T02:31:14.527Z,5.08
2019-03-25T02:33:43.175Z,4.99
2019-03-25T02:36:11.872Z,4.99
2019-03-25T02:38:40.622Z,4.93
2019-03-25T02:41:09.296Z,4.87
2019-03-25T02:43:37.885Z,4.79
2019-03-25T02:46:06.645Z,4.80
2019-03-25T02:48:35.455Z,4.74
2019-03-25T02:51:05.102Z,4.71
2019-03-25T02:53:33.859Z,4.57
2019-03-25T02:56:02.700Z,4.62
2019-03-25T02:58:31.360Z,4.55
2019-03-25T03:01:00.073Z,4.43
2019-03-25T03:03:28.880Z,4.38
2019-03-25T03:05:57.543Z,4.32
2019-03-25T03:08:26.273Z,4.26
2019-03-25T03:10:54.891Z,4.17
2019-03-25T03:13:23.611Z,4.09
2019-03-25T03:15:52.301Z,4.01
2019-03-25T03:18:21.042Z,3.95
2019-03-25T03:20:49.807Z,3.86
2019-03-25T03:23:18.504Z,3.78
2019-03-25T03:25:57.352Z,3.69
2019-03-25T03:28:17.583Z,3.67
2019-03-25T03:30:46.334Z,3.64
2019-03-25T03:33:15.041Z,3.63
2019-03-25T03:35:46.374Z,3.57
2019-03-25T03:38:14.060Z,3.52
2019-03-25T03:40:42.770Z,3.53
2019-03-25T03:43:11.571Z,3.47
2019-03-25T03:45:40.306Z,3.46
2019-03-25T03:48:09.149Z,3.44
2019-03-25T03:50:38.111Z,3.40
2019-03-25T03:53:06.931Z,3.40
2019-03-25T03:55:37.135Z,3.43
2019-03-25T03:58:08.431Z,3.41
2019-03-25T04:00:37.340Z,3.41
2019-03-25T04:03:06.118Z,3.40
2019-03-25T04:05:34.839Z,3.39
2019-03-25T04:08:03.607Z,3.36
2019-03-25T04:10:32.350Z,3.33
2019-03-25T04:13:01.043Z,3.52
2019-03-25T04:15:31.926Z,3.57
2019-03-25T04:18:00.714Z,3.64
2019-03-25T04:20:29.451Z,3.62
2019-03-25T04:22:58.242Z,3.60
2019-03-25T04:25:26.968Z,3.60
2019-03-25T04:27:55.822Z,3.56
2019-03-25T04:30:24.543Z,3.51
2019-03-25T04:32:53.277Z,3.57
2019-03-25T04:35:21.926Z,3.53
2019-03-25T04:37:50.793Z,3.50
2019-03-25T04:40:19.527Z,3.51
2019-03-25T04:42:48.211Z,3.59
2019-03-25T04:45:16.943Z,3.58
2019-03-25T04:47:45.627Z,3.56
2019-03-25T04:50:14.543Z,3.58
2019-03-25T04:52:43.287Z,3.53
2019-03-25T04:55:12.104Z,3.56
2019-03-25T04:57:40.839Z,3.52
2019-03-25T05:00:10.696Z,3.53
2019-03-25T05:02:39.467Z,3.55
2019-03-25T05:05:09.630Z,3.58
2019-03-25T05:07:38.740Z,3.57
2019-03-25T05:10:09.863Z,3.59
2019-03-25T05:12:38.565Z,3.61
2019-03-25T05:15:07.886Z,3.59
2019-03-25T05:17:36.543Z,3.67
2019-03-25T05:20:06.698Z,3.75
2019-03-25T05:22:35.420Z,3.78
2019-03-25T05:25:06.847Z,3.87
2019-03-25T05:27:35.473Z,3.89
2019-03-25T05:30:06.771Z,3.94
2019-03-25T05:32:35.585Z,4.01
2019-03-25T05:35:07.120Z,4.07
2019-03-25T05:37:35.776Z,3.54
2019-03-25T05:40:05.346Z,4.17
2019-03-25T05:42:34.025Z,4.00
2019-03-25T05:45:02.903Z,4.36
2019-03-25T05:47:31.606Z,4.78
2019-03-25T05:50:00.410Z,4.91
2019-03-25T05:52:29.058Z,4.91
2019-03-25T05:54:57.767Z,4.91
2019-03-25T05:57:26.495Z,4.92
2019-03-25T05:59:55.278Z,4.83
2019-03-25T06:02:24.003Z,4.78
2019-03-25T06:04:52.737Z,4.74
2019-03-25T06:07:21.416Z,4.81
2019-03-25T06:09:50.119Z,4.98
2019-03-25T06:12:18.771Z,5.11
2019-03-25T06:14:47.437Z,5.17
2019-03-25T06:17:16.211Z,5.24
2019-03-25T06:19:44.962Z,5.25
2019-03-25T06:22:13.712Z,5.32
2019-03-25T06:24:42.333Z,5.36
2019-03-25T06:27:14.269Z,5.47
2019-03-25T06:29:43.708Z,5.45
2019-03-25T06:32:12.500Z,5.47
2019-03-25T06:34:41.062Z,5.54
2019-03-25T06:37:09.754Z,5.70
2019-03-25T06:39:38.418Z,5.72
2019-03-25T06:42:07.195Z,5.68
2019-03-25T06:44:35.940Z,5.57
2019-03-25T06:47:06.253Z,5.40
2019-03-25T06:49:35.002Z,5.27
2019-03-25T06:52:03.926Z,5.12
2019-03-25T06:54:32.706Z,5.06
2019-03-25T06:57:02.007Z,5.10
2019-03-25T06:59:30.767Z,5.19
2019-03-25T07:01:59.452Z,5.26
2019-03-25T07:04:28.330Z,5.63
2019-03-25T07:06:56.979Z,6.02
2019-03-25T07:09:25.685Z,6.61
2019-03-25T07:11:54.425Z,6.84
2019-03-25T07:14:23.327Z,7.14
2019-03-25T07:16:51.966Z,7.59
2019-03-25T07:19:20.671Z,8.09
2019-03-25T07:21:49.312Z,7.40
2019-03-25T07:24:18.021Z,7.03
2019-03-25T07:26:46.741Z,7.41
2019-03-25T07:29:15.444Z,7.43
2019-03-25T07:31:44.314Z,7.37
2019-03-25T07:34:12.947Z,7.72
2019-03-25T07:36:41.577Z,8.10
2019-03-25T07:39:10.315Z,8.08
2019-03-25T07:41:39.004Z,8.63
2019-03-25T07:44:08.794Z,8.75
2019-03-25T07:46:38.039Z,8.68
2019-03-25T07:49:06.982Z,9.03
2019-03-25T07:51:35.655Z,9.13
2019-03-25T07:54:05.034Z,8.32
2019-03-25T07:56:33.826Z,8.32
2019-03-25T07:59:02.546Z,8.18
2019-03-25T08:01:31.846Z,8.64
2019-03-25T08:04:01.404Z,9.07
2019-03-25T08:06:30.066Z,9.84
2019-03-25T08:09:03.788Z,10.08
2019-03-25T08:11:29.148Z,9.89
2019-03-25T08:13:57.792Z,10.04
2019-03-25T08:16:26.488Z,10.07
2019-03-25T08:18:55.210Z,9.68
2019-03-25T08:21:25.122Z,9.29
2019-03-25T08:23:54.281Z,8.69
2019-03-25T08:26:23.021Z,8.64
2019-03-25T08:28:51.800Z,8.31
2019-03-25T08:31:20.518Z,8.18
2019-03-25T08:33:49.151Z,7.91
2019-03-25T08:36:17.838Z,7.70
2019-03-25T08:38:46.566Z,7.50
2019-03-25T08:41:15.285Z,7.44
2019-03-25T08:43:43.918Z,7.56
2019-03-25T08:46:12.690Z,7.66
2019-03-25T08:48:41.382Z,8.17
2019-03-25T08:51:10.159Z,8.74
2019-03-25T08:53:38.836Z,8.64
2019-03-25T08:56:07.559Z,8.91
2019-03-25T08:58:36.269Z,9.12
2019-03-25T09:01:05.006Z,9.16
2019-03-25T09:03:33.623Z,8.90
2019-03-25T09:06:02.339Z,9.45
2019-03-25T09:08:30.970Z,9.53
2019-03-25T09:10:59.708Z,9.79
2019-03-25T09:13:28.318Z,9.94
2019-03-25T09:15:57.096Z,10.20
2019-03-25T09:18:25.794Z,10.58
2019-03-25T09:20:54.483Z,9.73
2019-03-25T09:23:23.276Z,9.73
2019-03-25T09:25:52.082Z,9.35
2019-03-25T09:28:24.378Z,8.84
2019-03-25T09:30:54.076Z,8.47
2019-03-25T09:33:22.991Z,8.57
2019-03-25T09:35:53.564Z,9.58
2019-03-25T09:38:22.299Z,10.62
2019-03-25T09:40:51.092Z,10.78
2019-03-25T09:43:19.756Z,10.65
2019-03-25T09:45:48.470Z,11.41
2019-03-25T09:48:17.321Z,10.84
2019-03-25T09:50:45.941Z,10.94
2019-03-25T09:53:14.683Z,10.00
2019-03-25T09:55:43.341Z,9.97
2019-03-25T09:58:12.040Z,11.02
2019-03-25T10:00:40.756Z,11.11
2019-03-25T10:03:09.310Z,11.08
2019-03-25T10:05:38.129Z,11.59
2019-03-25T10:08:06.783Z,11.54
2019-03-25T10:10:35.443Z,10.95
2019-03-25T10:13:05.056Z,10.31
2019-03-25T10:15:33.710Z,10.77
2019-03-25T10:18:02.438Z,11.56
2019-03-25T10:20:31.175Z,11.99
2019-03-25T10:22:59.879Z,12.26
2019-03-25T10:25:28.605Z,12.92
2019-03-25T10:27:57.230Z,13.13
2019-03-25T10:30:26.353Z,12.37
2019-03-25T10:32:54.976Z,12.66
2019-03-25T10:35:23.708Z,12.94
2019-03-25T10:37:52.338Z,12.94
2019-03-25T10:40:21.103Z,12.99
2019-03-25T10:42:49.731Z,12.15
2019-03-25T10:45:19.172Z,12.83
2019-03-25T10:47:47.847Z,12.76
2019-03-25T10:50:16.544Z,12.73
2019-03-25T10:52:45.243Z,12.60
2019-03-25T10:55:13.984Z,13.27
2019-03-25T10:57:42.738Z,13.24
2019-03-25T11:00:13.244Z,12.72
2019-03-25T11:02:42.023Z,11.93
2019-03-25T11:05:12.344Z,12.20
2019-03-25T11:10:11.366Z,12.70
2019-03-25T11:12:40.094Z,13.24
2019-03-25T11:15:10.087Z,13.25
2019-03-25T11:17:38.820Z,12.97
2019-03-25T11:20:10.296Z,12.42
2019-03-25T11:22:38.988Z,12.45
2019-03-25T11:25:09.362Z,12.96
2019-03-25T11:27:38.164Z,12.70
2019-03-25T11:30:09.348Z,13.33
2019-03-25T11:32:38.018Z,13.92
2019-03-25T11:35:09.528Z,13.71
2019-03-25T11:37:38.240Z,12.58
2019-03-25T11:40:09.778Z,11.66
2019-03-25T11:42:38.497Z,11.27
2019-03-25T11:45:09.422Z,12.08
2019-03-25T11:47:38.131Z,12.49
2019-03-25T11:50:09.418Z,12.60
2019-03-25T11:52:38.124Z,13.00
2019-03-25T11:55:07.492Z,13.17
2019-03-25T11:57:36.167Z,13.50
2019-03-25T12:00:07.969Z,12.50
2019-03-25T12:02:36.698Z,11.54
2019-03-25T12:05:07.623Z,10.26
2019-03-25T12:07:36.364Z,9.02
2019-03-25T12:10:07.525Z,10.25
2019-03-25T12:12:36.204Z,10.46
2019-03-25T12:15:07.501Z,11.25
2019-03-25T12:17:36.248Z,11.36
2019-03-25T12:20:07.635Z,10.98
2019-03-25T12:22:36.380Z,10.98
2019-03-25T12:25:07.647Z,10.84
2019-03-25T12:27:36.254Z,10.18
2019-03-25T12:30:07.421Z,10.15
2019-03-25T12:32:36.092Z,9.88
2019-03-25T12:35:07.635Z,9.25
2019-03-25T12:37:36.340Z,8.67
2019-03-25T12:40:07.867Z,8.28
2019-03-25T12:42:36.784Z,8.12
2019-03-25T12:45:07.793Z,8.34
2019-03-25T12:47:36.494Z,9.31
2019-03-25T12:50:07.944Z,10.03
2019-03-25T12:52:36.569Z,9.52
2019-03-25T12:55:07.024Z,9.73
2019-03-25T12:57:35.754Z,9.42
2019-03-25T13:00:07.305Z,9.31
2019-03-25T13:02:36.208Z,9.75
2019-03-25T13:05:06.702Z,10.00
2019-03-25T13:07:35.415Z,9.64
2019-03-25T13:10:07.917Z,9.45
2019-03-25T13:12:36.663Z,9.87
2019-03-25T13:15:07.984Z,10.80
2019-03-25T13:17:36.706Z,11.22
2019-03-25T13:20:06.976Z,11.68
2019-03-25T13:22:35.741Z,12.00
2019-03-25T13:25:05.834Z,11.86
2019-03-25T13:27:34.573Z,10.50
2019-03-25T13:30:03.339Z,9.50
2019-03-25T13:32:32.084Z,8.97
2019-03-25T13:35:00.881Z,9.31
2019-03-25T13:37:29.791Z,9.63
2019-03-25T13:39:58.625Z,9.97
2019-03-25T13:42:27.266Z,10.17
2019-03-25T13:44:57.681Z,10.68
2019-03-25T13:47:26.823Z,10.94
2019-03-25T13:49:55.433Z,11.02
2019-03-25T13:52:24.289Z,11.37
2019-03-25T13:54:52.982Z,11.91
2019-03-25T13:57:21.664Z,12.48
2019-03-25T13:59:50.404Z,11.69
2019-03-25T14:02:19.097Z,11.10
2019-03-25T14:04:47.779Z,10.66
2019-03-25T14:07:16.576Z,10.18
2019-03-25T14:09:45.385Z,9.91
2019-03-25T14:12:14.027Z,9.81
2019-03-25T14:14:42.677Z,9.47
2019-03-25T14:17:11.375Z,9.34
2019-03-25T14:19:40.071Z,9.38
2019-03-25T14:22:09.076Z,9.69
2019-03-25T14:24:37.891Z,9.77
2019-03-25T14:27:06.598Z,9.78
2019-03-25T14:29:35.450Z,10.00
2019-03-25T14:32:04.194Z,10.03
2019-03-25T14:34:32.824Z,9.11
2019-03-25T14:37:01.632Z,9.62
2019-03-25T14:39:32.464Z,9.54
2019-03-25T14:42:01.227Z,9.45
2019-03-25T14:44:29.849Z,9.31
2019-03-25T14:46:58.586Z,9.36
2019-03-25T14:49:27.222Z,9.35
2019-03-25T14:51:55.852Z,9.34
2019-03-25T14:54:24.681Z,9.23
2019-03-25T14:56:53.299Z,9.16
2019-03-25T14:59:22.047Z,9.07
2019-03-25T15:01:50.924Z,9.09
2019-03-25T15:04:19.608Z,8.91
2019-03-25T15:06:48.276Z,9.02
2019-03-25T15:09:16.938Z,8.99
2019-03-25T15:11:45.631Z,9.16
2019-03-25T15:14:14.389Z,9.20
2019-03-25T15:16:43.099Z,9.09
2019-03-25T15:19:11.837Z,9.07
2019-03-25T15:21:40.554Z,8.99
2019-03-25T15:24:09.191Z,8.89
2019-03-25T15:26:37.970Z,8.90
2019-03-25T15:29:06.683Z,8.97
2019-03-25T15:31:35.357Z,9.28
2019-03-25T15:34:05.012Z,9.80
2019-03-25T15:36:33.869Z,9.69
2019-03-25T15:39:02.554Z,9.50
2019-03-25T15:41:31.303Z,9.49
2019-03-25T15:43:59.986Z,9.52
2019-03-25T15:46:28.841Z,9.41
2019-03-25T15:48:57.522Z,9.22
2019-03-25T15:51:26.360Z,8.96
2019-03-25T15:53:54.904Z,8.93
2019-03-25T15:56:23.602Z,8.85
2019-03-25T15:58:52.319Z,8.79
2019-03-25T16:01:21.048Z,8.57
2019-03-25T16:03:49.739Z,8.41
2019-03-25T16:06:18.413Z,8.27
2019-03-25T16:08:47.032Z,8.06
2019-03-25T16:11:15.736Z,8.07
2019-03-25T16:13:44.380Z,8.10
2019-03-25T16:16:13.165Z,8.20
2019-03-25T16:18:43.281Z,8.32
2019-03-25T16:21:12.092Z,8.32
2019-03-25T16:23:40.785Z,8.23
2019-03-25T16:26:09.426Z,8.22
2019-03-25T16:28:38.141Z,8.32
2019-03-25T16:31:06.908Z,8.41
2019-03-25T16:33:35.808Z,8.47
2019-03-25T16:36:05.273Z,8.51
2019-03-25T16:38:34.798Z,8.06
2019-03-25T16:41:06.651Z,8.49
2019-03-25T16:43:35.838Z,8.46
2019-03-25T16:46:04.891Z,8.41
2019-03-25T16:48:33.653Z,8.43
2019-03-25T16:51:02.293Z,8.38
2019-03-25T16:53:31.035Z,8.48
2019-03-25T16:56:00.327Z,8.41
2019-03-25T16:58:29.256Z,8.45
2019-03-25T17:01:09.126Z,8.43
2019-03-25T17:03:28.482Z,8.50
2019-03-25T17:05:58.388Z,8.44
2019-03-25T17:08:29.615Z,8.40
2019-03-25T17:11:00.014Z,8.42
2019-03-25T17:13:28.770Z,8.38
2019-03-25T17:15:57.478Z,8.33
2019-03-25T17:18:26.200Z,8.32
2019-03-25T17:20:54.970Z,8.36
2019-03-25T17:23:25.564Z,8.34
2019-03-25T17:25:54.595Z,8.30
2019-03-25T17:28:23.917Z,8.26
2019-03-25T17:30:52.734Z,8.20
2019-03-25T17:33:21.360Z,8.24
2019-03-25T17:35:50.007Z,8.19
2019-03-25T17:38:18.847Z,8.14
2019-03-25T17:40:47.635Z,8.15
2019-03-25T17:43:16.497Z,8.16
2019-03-25T17:45:45.248Z,8.08
2019-03-25T17:48:13.988Z,8.11
2019-03-25T17:50:42.759Z,8.06
2019-03-25T17:53:12.082Z,8.05
2019-03-25T17:55:40.881Z,8.08
2019-03-25T17:58:12.977Z,8.01
2019-03-25T18:00:49.895Z,8.01
2019-03-25T18:03:18.462Z,7.96
2019-03-25T18:05:47.256Z,7.96
2019-03-25T18:08:16.080Z,7.99
2019-03-25T18:10:44.723Z,7.99
2019-03-25T18:13:21.962Z,8.04
2019-03-25T18:15:43.831Z,8.03
2019-03-25T18:18:12.516Z,8.09
2019-03-25T18:20:41.218Z,7.94
2019-03-25T18:23:09.982Z,7.86
2019-03-25T18:25:38.682Z,7.82
2019-03-25T18:28:08.514Z,7.75
2019-03-25T18:30:39.803Z,7.80
2019-03-25T18:33:09.779Z,7.81
2019-03-25T18:35:38.456Z,7.84
2019-03-25T18:38:07.249Z,7.83
2019-03-25T18:40:36.655Z,7.82
2019-03-25T18:43:05.469Z,7.82
2019-03-25T18:45:34.207Z,7.72
2019-03-25T18:48:02.930Z,7.75
2019-03-25T18:50:31.649Z,7.73
2019-03-25T18:53:00.415Z,7.77
2019-03-25T18:55:29.140Z,7.70
2019-03-25T18:57:57.837Z,7.69
2019-03-25T19:00:34.854Z,7.60
2019-03-25T19:03:05.402Z,7.57
2019-03-25T19:05:35.193Z,7.55
2019-03-25T19:08:05.566Z,7.45
2019-03-25T19:10:34.360Z,7.46
2019-03-25T19:13:03.068Z,7.38
2019-03-25T19:15:31.765Z,7.33
2019-03-25T19:18:00.613Z,7.41
2019-03-25T19:20:29.330Z,7.36
2019-03-25T19:22:58.103Z,7.30
2019-03-25T19:25:26.908Z,7.28
2019-03-25T19:27:55.519Z,7.18
2019-03-25T19:30:24.247Z,7.09
2019-03-25T19:32:53.006Z,7.00
2019-03-25T19:35:21.794Z,6.91
2019-03-25T19:37:50.778Z,6.89
2019-03-25T19:40:19.543Z,6.95
2019-03-25T19:42:48.278Z,6.94
2019-03-25T19:45:17.620Z,6.91
2019-03-25T19:47:46.375Z,6.97
2019-03-25T19:50:15.955Z,6.92
2019-03-25T19:52:44.587Z,6.87
2019-03-25T19:55:13.434Z,6.86
2019-03-25T19:57:42.290Z,6.93
2019-03-25T20:00:15.036Z,6.89
2019-03-25T20:02:44.737Z,6.86
2019-03-25T20:05:13.561Z,6.93
2019-03-25T20:07:42.363Z,6.84
2019-03-25T20:10:14.126Z,6.89
2019-03-25T20:12:43.807Z,6.97
2019-03-25T20:15:12.696Z,6.94
2019-03-25T20:17:41.368Z,6.99
2019-03-25T20:20:10.264Z,7.00
2019-03-25T20:22:39.067Z,7.02
2019-03-25T20:25:07.800Z,7.08
2019-03-25T20:27:36.562Z,7.18
2019-03-25T20:30:11.032Z,7.18
2019-03-25T20:32:39.934Z,7.09
2019-03-25T20:35:08.860Z,7.05
2019-03-25T20:37:37.602Z,7.07
2019-03-25T20:40:09.061Z,7.08
2019-03-25T20:42:38.584Z,7.07
2019-03-25T20:45:09.076Z,7.05
2019-03-25T20:47:37.834Z,7.04
2019-03-25T20:50:07.081Z,7.08
2019-03-25T20:52:35.844Z,6.96
2019-03-25T20:55:31.688Z,6.94
2019-03-25T20:58:00.537Z,6.94
2019-03-25T21:00:58.842Z,6.92
2019-03-25T21:03:28.405Z,6.81
2019-03-25T21:05:57.108Z,6.77
2019-03-25T21:08:25.913Z,6.68
2019-03-25T21:10:54.835Z,6.63
2019-03-25T21:13:23.694Z,6.52
2019-03-25T21:15:52.685Z,6.46
2019-03-25T21:18:37.992Z,6.37
2019-03-25T21:21:07.797Z,6.26
2019-03-25T21:23:37.415Z,6.10
2019-03-25T21:26:06.211Z,6.07
2019-03-25T21:28:41.543Z,6.12
2019-03-25T21:31:14.349Z,6.01
2019-03-25T21:33:43.181Z,5.90
2019-03-25T21:36:12.079Z,5.89
2019-03-25T21:38:40.981Z,5.81
2019-03-25T21:41:10.246Z,5.73
2019-03-25T21:43:39.022Z,5.73
2019-03-25T21:46:07.844Z,5.71
2019-03-25T21:48:39.931Z,5.70
2019-03-25T21:51:08.946Z,5.64
2019-03-25T21:53:37.656Z,5.54
2019-03-25T21:56:08.127Z,5.17
2019-03-25T21:58:45.257Z,5.37
2019-03-25T22:01:14.027Z,5.35
2019-03-25T22:03:43.834Z,5.32
2019-03-25T22:06:18.346Z,5.26
2019-03-25T22:08:47.067Z,5.20
2019-03-25T22:11:15.856Z,5.21
2019-03-25T22:13:44.569Z,5.16
2019-03-25T22:16:15.627Z,5.22
2019-03-25T22:18:44.437Z,5.31
2019-03-25T22:21:13.162Z,5.32
2019-03-25T22:23:41.950Z,5.33
2019-03-25T22:26:10.815Z,5.28
2019-03-25T22:28:39.437Z,5.32
2019-03-25T22:31:08.165Z,5.27
2019-03-25T22:33:36.925Z,5.26
2019-03-25T22:36:05.721Z,5.21
2019-03-25T22:38:34.447Z,5.18
2019-03-25T22:41:03.073Z,5.19
2019-03-25T22:43:34.744Z,5.17
2019-03-25T22:46:04.462Z,5.20
2019-03-25T22:48:33.952Z,5.25
2019-03-25T22:51:03.685Z,5.23
2019-03-25T22:53:33.125Z,5.26
2019-03-25T22:56:02.980Z,5.21
2019-03-25T22:58:32.872Z,5.24
2019-03-25T23:01:04.259Z,5.19
2019-03-25T23:03:39.005Z,5.10
2019-03-25T23:06:05.353Z,5.04
2019-03-25T23:08:34.967Z,5.06
2019-03-25T23:11:04.625Z,5.05
2019-03-25T23:13:34.592Z,5.11
2019-03-25T23:16:04.097Z,5.18
2019-03-25T23:18:33.634Z,5.25
2019-03-25T23:21:03.275Z,5.28
2019-03-25T23:23:32.786Z,5.28
2019-03-25T23:26:02.417Z,5.29
2019-03-25T23:28:32.101Z,5.29
2019-03-25T23:31:01.556Z,5.26
2019-03-25T23:33:31.048Z,5.23
2019-03-25T23:36:00.856Z,5.29
2019-03-25T23:38:30.415Z,5.36
2019-03-25T23:40:59.046Z,5.41
2019-03-25T23:43:27.936Z,5.48
2019-03-25T23:45:56.576Z,5.57
2019-03-25T23:48:25.124Z,5.63
2019-03-25T23:50:53.869Z,5.66
2019-03-25T23:53:22.521Z,5.71
2019-03-25T23:55:51.218Z,5.73
2019-03-25T23:58:19.921Z,5.73
